Bend, OR

11:41 AM PDT on September 21, 2014 (GMT -0700)
Awbrey Butte (HorizonDr) | Change Station
CLOSE
Current Station
Personal Weather Station
Location: Bend, OR
Elevation: 3821 ft
Nearby Weather Stations

Elev 3821 ft 44.08 °N, 121.35 °W | Updated 4 seconds ago

Clear
Clear
73.7 °F
Feels Like 77 °F
N
1.0
Wind Variable Wind from South
Gusts 3.0 mph

Today
High -- | Low -- °F
--% Chance of Precip.
Yesterday
High -- | Low -- °F
Precip. -- in
6:51 AM 7:04 PM
Waning Crescent, 6% visible
Pressure 30.04 in
Visibility 10.0 miles
Clouds Clear
Heat Index 77 °F
Dew Point 50 °F
Humidity 43%
Rainfall 0.00 in
Snow Depth 0 in , 0 in , 0 in
UV 6 out of 12
Pollen 2.00 out of 12
Air Quality Not available.
Flu Activity Not available.
METAR KBDN 211835Z AUTO 22003KT 10SM CLR 24/08 A3004 RMK AO2

More Conditions Fewer Conditions

Pressure 30.04 in
Visibility 10.0 miles
Clouds Clear
Heat Index 77 °F
Dew Point 50 °F
Humidity 43%
Rainfall 0.00 in
Snow Depth 0 in , 0 in , 0 in
UV 6 out of 12
Pollen 2.00 out of 12
Air Quality Not available.
Flu Activity Not available.
METAR KBDN 211835Z AUTO 22003KT 10SM CLR 24/08 A3004 RMK AO2

More Conditions Fewer Conditions

10-Day Weather Forecast

Almanac

Astronomy

Sep. 21, 2014 Rise Set
Actual Time 6:51 AM PDT 7:04 PM PDT
Civil Twilight 6:22 AM PDT 7:33 PM PDT
Nautical Twilight 5:48 AM PDT 8:07 PM PDT
Astronomical Twilight 5:13 AM PDT 8:41 PM PDT
Moon 4:26 AM PDT 5:46 PM PDT
Length of Visible Light 13h 10m
Length of Day
12h 12m
Tomorrow will be 3m 1s shorter.
Waning Crescent, 6% of the Moon is Illuminated
Today
Waning Crescent
Sep 24
New
Oct 1
First Quarter
Oct 8
Full
Oct 15
Last Quarter

Today's Extremes

State Highs State Lows

Community

WunderPhotos

Upload Photos

1,755,211 photos uploaded!

WunderBlogs® & News

Nearby

Snow Depth

Station Depth Elevation
Tipton 0 in 5150 ft
Fish Creek 0 in 7900 ft
Mt. Howard 0 in 7910 ft
Lucky Strike 0 in 5050 ft
Santiam Junction 0 in 3750 ft

Earthquake Activity

City Distance Mag. Time & Date
No recent earthquake activity has been reported nearby.
Minimum magnitude displayed is 2.5.

Coastal Water Temperatures

Place Temperature
No Stations Reporting

Nearby Weather Stations